createdAt,value
2024-02-10T00:00:57.447Z,4.89
2024-02-10T00:03:47.315Z,4.92
2024-02-10T00:06:19.442Z,4.90
2024-02-10T00:08:51.471Z,4.89
2024-02-10T00:11:23.810Z,4.86
2024-02-10T00:13:56.240Z,4.85
2024-02-10T00:16:29.759Z,4.81
2024-02-10T00:19:09.571Z,4.83
2024-02-10T00:21:42.764Z,4.84
2024-02-10T00:24:14.839Z,4.83
2024-02-10T00:26:47.710Z,4.84
2024-02-10T00:29:38.705Z,4.80
2024-02-10T00:32:11.444Z,4.77
2024-02-10T00:34:43.751Z,4.76
2024-02-10T00:37:18.081Z,4.77
2024-02-10T00:39:49.991Z,4.80
2024-02-10T00:42:25.341Z,4.84
2024-02-10T00:44:57.618Z,4.86
2024-02-10T00:47:31.086Z,4.84
2024-02-10T00:50:04.411Z,4.82
2024-02-10T00:52:36.705Z,4.84
2024-02-10T00:55:08.985Z,4.88
2024-02-10T00:57:45.774Z,4.84
2024-02-10T01:00:19.228Z,4.82
2024-02-10T01:02:52.241Z,4.89
2024-02-10T01:05:24.307Z,4.98
2024-02-10T01:08:01.160Z,5.06
2024-02-10T01:10:34.362Z,5.09
2024-02-10T01:13:06.991Z,5.07
2024-02-10T01:15:40.003Z,4.92
2024-02-10T01:18:14.129Z,4.88
2024-02-10T01:20:46.332Z,4.91
2024-02-10T01:23:18.368Z,4.88
2024-02-10T01:25:56.302Z,4.83
2024-02-10T01:28:29.201Z,4.77
2024-02-10T01:31:01.200Z,4.70
2024-02-10T01:33:33.143Z,4.64
2024-02-10T01:36:07.877Z,4.63
2024-02-10T01:38:44.431Z,4.72
2024-02-10T01:41:17.176Z,4.79
2024-02-10T01:43:52.396Z,4.84
2024-02-10T01:46:25.801Z,4.86
2024-02-10T01:48:57.807Z,4.91
2024-02-10T01:51:30.133Z,4.93
2024-02-10T01:54:04.598Z,4.96
2024-02-10T01:56:40.827Z,4.94
2024-02-10T01:59:14.560Z,4.96
2024-02-10T02:01:49.941Z,4.98
2024-02-10T02:04:24.265Z,5.01
2024-02-10T02:06:58.493Z,5.06
2024-02-10T02:09:30.657Z,5.05
2024-02-10T02:12:08.987Z,5.03
2024-02-10T02:14:43.053Z,5.04
2024-02-10T02:17:15.077Z,5.06
2024-02-10T02:19:47.621Z,5.06
2024-02-10T02:22:19.859Z,5.11
2024-02-10T02:24:54.296Z,5.07
2024-02-10T02:27:26.292Z,4.92
2024-02-10T02:29:58.720Z,4.84
2024-02-10T02:32:30.832Z,4.80
2024-02-10T02:35:10.195Z,4.76
2024-02-10T02:37:43.158Z,4.84
2024-02-10T02:40:19.407Z,4.94
2024-02-10T02:42:51.753Z,5.00
2024-02-10T02:45:23.748Z,5.00
2024-02-10T02:47:58.123Z,5.00
2024-02-10T02:50:30.251Z,5.02
2024-02-10T02:53:03.475Z,5.09
2024-02-10T02:55:35.523Z,5.17
2024-02-10T02:58:10.766Z,5.16
2024-02-10T03:00:43.289Z,5.12
2024-02-10T03:03:15.669Z,5.08
2024-02-10T03:05:47.702Z,5.08
2024-02-10T03:08:19.713Z,5.08
2024-02-10T03:10:52.053Z,5.09
2024-02-10T03:13:25.940Z,5.04
2024-02-10T03:15:58.157Z,5.05
2024-02-10T03:18:30.198Z,4.93
2024-02-10T03:21:02.374Z,4.90
2024-02-10T03:23:35.019Z,4.89
2024-02-10T03:26:07.208Z,4.79
2024-02-10T03:28:40.107Z,4.71
2024-02-10T03:31:12.718Z,4.65
2024-02-10T03:33:44.821Z,4.70
2024-02-10T03:36:16.851Z,4.73
2024-02-10T03:38:48.767Z,4.78
2024-02-10T03:41:20.758Z,4.79
2024-02-10T03:43:52.780Z,4.79
2024-02-10T03:46:25.010Z,4.81
2024-02-10T03:49:00.404Z,4.89
2024-02-10T03:51:33.103Z,4.88
2024-02-10T03:54:07.016Z,4.91
2024-02-10T03:56:39.264Z,4.98
2024-02-10T03:59:11.237Z,5.00
2024-02-10T04:01:44.354Z,4.99
2024-02-10T04:04:16.516Z,4.99
2024-02-10T04:06:48.738Z,4.97
2024-02-10T04:09:22.160Z,4.98
2024-02-10T04:11:54.356Z,5.01
2024-02-10T04:14:26.387Z,5.03
2024-02-10T04:16:58.503Z,5.00
2024-02-10T04:19:31.943Z,5.00
2024-02-10T04:22:07.879Z,4.98
2024-02-10T04:24:40.143Z,5.00
2024-02-10T04:27:12.097Z,5.07
2024-02-10T04:29:44.641Z,5.13
2024-02-10T04:32:16.632Z,5.09
2024-02-10T04:34:48.681Z,5.02
2024-02-10T04:37:21.546Z,4.94
2024-02-10T04:39:53.883Z,4.94
2024-02-10T04:42:25.766Z,5.05
2024-02-10T04:45:00.825Z,5.12
2024-02-10T04:47:36.241Z,5.20
2024-02-10T04:50:09.607Z,5.26
2024-02-10T04:52:41.650Z,5.25
2024-02-10T04:55:17.132Z,5.32
2024-02-10T04:57:49.588Z,5.40
2024-02-10T05:00:24.494Z,5.45
2024-02-10T05:02:56.964Z,5.53
2024-02-10T05:05:29.021Z,5.51
2024-02-10T05:08:01.036Z,5.55
2024-02-10T05:10:33.306Z,5.53
2024-02-10T05:13:05.452Z,5.48
2024-02-10T05:15:37.475Z,5.43
2024-02-10T05:18:10.527Z,5.37
2024-02-10T05:20:45.182Z,5.29
2024-02-10T05:23:18.055Z,5.35
2024-02-10T05:25:50.011Z,5.40
2024-02-10T05:28:27.280Z,5.41
2024-02-10T05:31:00.748Z,5.47
2024-02-10T05:33:32.850Z,5.53
2024-02-10T05:36:04.911Z,5.58
2024-02-10T05:38:37.153Z,5.55
2024-02-10T05:41:09.392Z,5.54
2024-02-10T05:43:41.336Z,5.59
2024-02-10T05:46:14.822Z,5.62
2024-02-10T05:48:47.190Z,5.63
2024-02-10T05:51:19.167Z,5.67
2024-02-10T05:53:53.837Z,5.65
2024-02-10T05:56:31.164Z,5.66
2024-02-10T05:59:05.180Z,5.73
2024-02-10T06:01:37.557Z,5.82
2024-02-10T06:04:11.106Z,5.90
2024-02-10T06:06:46.617Z,5.90
2024-02-10T06:09:18.847Z,5.91
2024-02-10T06:11:53.383Z,5.92
2024-02-10T06:14:27.211Z,5.91
2024-02-10T06:17:00.901Z,5.93
2024-02-10T06:19:33.059Z,5.97
2024-02-10T06:22:08.098Z,6.01
2024-02-10T06:24:45.423Z,6.07
2024-02-10T06:27:21.455Z,6.13
2024-02-10T06:29:55.619Z,6.16
2024-02-10T06:32:27.709Z,6.21
2024-02-10T06:34:59.769Z,6.19
2024-02-10T06:37:33.549Z,6.08
2024-02-10T06:40:06.344Z,5.98
2024-02-10T06:42:39.041Z,5.98
2024-02-10T06:45:15.108Z,6.00
2024-02-10T06:47:48.271Z,6.03
2024-02-10T06:50:25.750Z,6.13
2024-02-10T06:53:01.855Z,6.12
2024-02-10T06:55:35.122Z,6.15
2024-02-10T06:58:07.543Z,6.14
2024-02-10T07:00:42.553Z,6.17
2024-02-10T07:03:19.353Z,6.22
2024-02-10T07:05:54.321Z,6.27
2024-02-10T07:08:26.714Z,6.36
2024-02-10T07:11:00.104Z,6.40
2024-02-10T07:13:32.865Z,6.48
2024-02-10T07:16:07.112Z,6.58
2024-02-10T07:18:40.260Z,6.62
2024-02-10T07:21:12.830Z,6.67
2024-02-10T07:23:45.550Z,6.74
2024-02-10T07:26:21.780Z,6.82
2024-02-10T07:28:55.059Z,6.86
2024-02-10T07:31:27.839Z,6.84
2024-02-10T07:34:00.463Z,6.85
2024-02-10T07:36:36.551Z,6.91
2024-02-10T07:39:09.367Z,6.96
2024-02-10T07:41:42.079Z,7.07
2024-02-10T07:44:14.771Z,7.15
2024-02-10T07:46:46.779Z,7.07
2024-02-10T07:49:20.905Z,6.98
2024-02-10T07:51:54.387Z,7.01
2024-02-10T07:54:26.268Z,7.12
2024-02-10T07:56:58.363Z,7.21
2024-02-10T07:59:30.475Z,7.30
2024-02-10T08:02:02.553Z,7.41
2024-02-10T08:04:34.765Z,7.53
2024-02-10T08:07:08.419Z,7.62
2024-02-10T08:09:40.528Z,7.72
2024-02-10T08:12:14.901Z,7.91
2024-02-10T08:14:48.725Z,8.05
2024-02-10T08:17:22.343Z,8.16
2024-02-10T08:19:58.360Z,8.26
2024-02-10T08:22:35.030Z,8.31
2024-02-10T08:25:08.882Z,8.38
2024-02-10T08:27:42.191Z,8.49
2024-02-10T08:30:18.017Z,8.56
2024-02-10T08:32:50.188Z,8.61
2024-02-10T08:35:22.286Z,8.70
2024-02-10T08:37:54.309Z,8.76
2024-02-10T08:40:26.313Z,8.85
2024-02-10T08:43:00.528Z,8.97
2024-02-10T08:45:32.464Z,8.99
2024-02-10T08:48:06.449Z,9.04
2024-02-10T08:50:42.509Z,9.12
2024-02-10T08:53:15.777Z,9.14
2024-02-10T08:55:49.134Z,9.11
2024-02-10T08:58:24.076Z,9.10
2024-02-10T09:00:59.099Z,9.14
2024-02-10T09:03:32.812Z,9.18
2024-02-10T09:06:05.144Z,9.21
2024-02-10T09:08:39.053Z,9.28
2024-02-10T09:11:11.129Z,9.35
2024-02-10T09:13:46.241Z,9.43
2024-02-10T09:16:18.693Z,9.53
2024-02-10T09:18:50.674Z,9.58
2024-02-10T09:21:23.387Z,9.63
2024-02-10T09:23:59.739Z,9.68
2024-02-10T09:26:31.897Z,9.68
2024-02-10T09:29:04.072Z,9.70
2024-02-10T09:31:36.714Z,9.69
2024-02-10T09:34:08.995Z,9.77
2024-02-10T09:36:43.893Z,9.82
2024-02-10T09:39:17.286Z,9.82
2024-02-10T09:41:53.938Z,9.87
2024-02-10T09:44:25.885Z,10.00
2024-02-10T09:47:01.973Z,10.09
2024-02-10T09:49:36.697Z,10.13
2024-02-10T09:52:08.975Z,10.19
2024-02-10T09:54:41.658Z,10.27
2024-02-10T09:57:15.862Z,10.33
2024-02-10T09:59:47.886Z,10.40
2024-02-10T10:02:20.558Z,10.50
2024-02-10T10:04:52.459Z,10.55
2024-02-10T10:07:26.118Z,10.63
2024-02-10T10:09:58.417Z,10.69
2024-02-10T10:12:30.441Z,10.81
2024-02-10T10:15:02.382Z,10.93
2024-02-10T10:17:39.349Z,11.05
2024-02-10T10:20:12.489Z,11.20
2024-02-10T10:22:44.625Z,11.33
2024-02-10T10:25:17.185Z,11.39
2024-02-10T10:27:50.036Z,11.44
2024-02-10T10:30:24.209Z,11.54
2024-02-10T10:32:59.409Z,11.61
2024-02-10T10:35:33.590Z,11.57
2024-02-10T10:38:08.072Z,11.50
2024-02-10T10:40:40.891Z,11.49
2024-02-10T10:43:16.458Z,11.46
2024-02-10T10:45:47.432Z,11.49
2024-02-10T10:48:20.479Z,11.53
2024-02-10T10:50:58.143Z,11.54
2024-02-10T10:53:32.841Z,11.63
2024-02-10T10:56:09.969Z,11.82
2024-02-10T10:58:47.899Z,12.00
2024-02-10T11:01:22.839Z,12.18
2024-02-10T11:04:03.296Z,12.27
2024-02-10T11:06:37.369Z,12.27
2024-02-10T11:09:10.915Z,12.22
2024-02-10T11:11:47.345Z,12.10
2024-02-10T11:14:19.530Z,12.02
2024-02-10T11:16:53.336Z,12.07
2024-02-10T11:19:26.136Z,12.10
2024-02-10T11:22:07.912Z,12.11
2024-02-10T11:24:47.228Z,12.14
2024-02-10T11:27:19.352Z,12.22
2024-02-10T11:29:59.699Z,12.31
2024-02-10T11:32:33.258Z,12.39
2024-02-10T11:35:05.639Z,12.45
2024-02-10T11:37:38.089Z,12.46
2024-02-10T11:40:17.135Z,12.56
2024-02-10T11:42:49.311Z,12.64
2024-02-10T11:45:21.308Z,12.66
2024-02-10T11:47:56.572Z,12.72
2024-02-10T11:50:28.586Z,12.77
2024-02-10T11:53:01.226Z,12.78
2024-02-10T11:55:34.820Z,12.80
2024-02-10T11:58:07.223Z,12.80
2024-02-10T12:00:39.750Z,12.80
2024-02-10T12:03:14.493Z,12.81
2024-02-10T12:05:48.625Z,12.79
2024-02-10T12:08:20.868Z,12.80
2024-02-10T12:10:53.136Z,12.85
2024-02-10T12:13:27.245Z,12.97
2024-02-10T12:16:03.265Z,13.04
2024-02-10T12:18:34.043Z,13.05
2024-02-10T12:21:07.463Z,13.07
2024-02-10T12:23:40.825Z,13.14
2024-02-10T12:26:13.325Z,13.18
2024-02-10T12:28:45.701Z,13.18
2024-02-10T12:31:22.716Z,13.20
2024-02-10T12:33:56.433Z,13.18
2024-02-10T12:36:32.693Z,13.19
2024-02-10T12:39:06.994Z,13.20
2024-02-10T12:41:39.402Z,13.18
2024-02-10T12:44:12.385Z,13.15
2024-02-10T12:46:47.189Z,13.16
2024-02-10T12:49:19.981Z,13.19
2024-02-10T12:51:56.687Z,13.15
2024-02-10T12:54:29.410Z,13.07
2024-02-10T12:57:01.535Z,12.99
2024-02-10T12:59:35.016Z,12.89
2024-02-10T13:02:09.923Z,12.83
2024-02-10T13:04:46.800Z,12.74
2024-02-10T13:07:20.001Z,12.67
2024-02-10T13:09:52.186Z,12.67
2024-02-10T13:12:24.609Z,12.66
2024-02-10T13:14:56.571Z,12.62
2024-02-10T13:17:28.720Z,12.60
2024-02-10T13:20:01.133Z,12.57
2024-02-10T13:22:33.685Z,12.56
2024-02-10T13:25:06.785Z,12.54
2024-02-10T13:27:38.773Z,12.51
2024-02-10T13:30:15.638Z,12.47
2024-02-10T13:32:48.257Z,12.48
2024-02-10T13:35:23.433Z,12.51
2024-02-10T13:38:14.715Z,12.50
2024-02-10T13:41:04.767Z,12.49
2024-02-10T13:43:54.736Z,12.50
2024-02-10T13:46:44.836Z,12.51
2024-02-10T13:49:35.029Z,12.51
2024-02-10T13:52:24.728Z,12.51
2024-02-10T13:55:14.548Z,12.47
2024-02-10T13:58:03.996Z,12.41
2024-02-10T14:00:37.796Z,12.37
2024-02-10T14:03:13.326Z,12.36
2024-02-10T14:05:56.912Z,12.31
2024-02-10T14:08:49.769Z,12.26
2024-02-10T14:11:24.044Z,12.24
2024-02-10T14:13:57.378Z,12.22
2024-02-10T14:16:32.017Z,12.20
2024-02-10T14:19:07.424Z,12.18
2024-02-10T14:21:42.225Z,12.12
2024-02-10T14:24:17.468Z,12.08
2024-02-10T14:27:02.427Z,12.04
2024-02-10T14:29:37.780Z,12.01
2024-02-10T14:32:14.118Z,11.95
2024-02-10T14:35:00.260Z,11.89
2024-02-10T14:37:47.434Z,11.85
2024-02-10T14:40:33.010Z,11.80
2024-02-10T14:43:06.929Z,11.76
2024-02-10T14:45:41.521Z,11.74
2024-02-10T14:48:13.739Z,11.69
2024-02-10T14:50:46.090Z,11.64
2024-02-10T14:53:18.060Z,11.59
2024-02-10T14:55:50.100Z,11.53
2024-02-10T14:58:22.154Z,11.44
2024-02-10T15:00:55.639Z,11.34
2024-02-10T15:03:28.356Z,11.25
2024-02-10T15:06:00.436Z,11.12
2024-02-10T15:08:32.470Z,11.02
2024-02-10T15:11:04.541Z,10.95
2024-02-10T15:13:37.287Z,10.84
2024-02-10T15:16:09.903Z,10.73
2024-02-10T15:18:41.896Z,10.61
2024-02-10T15:21:14.889Z,10.51
2024-02-10T15:23:46.821Z,10.44
2024-02-10T15:26:19.015Z,10.35
2024-02-10T15:28:53.417Z,10.24
2024-02-10T15:31:27.302Z,10.13
2024-02-10T15:33:59.790Z,10.04
2024-02-10T15:36:57.580Z,9.93
2024-02-10T15:39:29.622Z,9.82
2024-02-10T15:42:01.631Z,9.71
2024-02-10T15:44:33.647Z,9.64
2024-02-10T15:47:05.911Z,9.55
2024-02-10T15:49:37.912Z,9.45
2024-02-10T15:52:10.566Z,9.36
2024-02-10T15:54:44.153Z,9.27
2024-02-10T15:57:16.246Z,9.18
2024-02-10T15:59:48.385Z,9.10
2024-02-10T16:02:20.835Z,9.01
2024-02-10T16:04:54.410Z,8.93
2024-02-10T16:07:26.463Z,8.86
2024-02-10T16:09:58.584Z,8.81
2024-02-10T16:12:30.682Z,8.75
2024-02-10T16:15:02.750Z,8.70
2024-02-10T16:17:38.759Z,8.65
2024-02-10T16:20:13.877Z,8.60
2024-02-10T16:22:45.954Z,8.55
2024-02-10T16:25:18.109Z,8.51
2024-02-10T16:27:54.236Z,8.46
2024-02-10T16:30:28.854Z,8.42
2024-02-10T16:33:01.032Z,8.37
2024-02-10T16:35:33.219Z,8.32
2024-02-10T16:38:10.369Z,8.28
2024-02-10T16:40:44.055Z,8.23
2024-02-10T16:43:18.137Z,8.19
2024-02-10T16:45:50.264Z,8.16
2024-02-10T16:48:22.232Z,8.12
2024-02-10T16:50:55.892Z,8.10
2024-02-10T16:53:28.974Z,8.06
2024-02-10T16:56:02.382Z,8.04
2024-02-10T16:58:34.548Z,8.00
2024-02-10T17:01:07.051Z,7.98
2024-02-10T17:03:39.134Z,7.96
2024-02-10T17:06:13.945Z,7.93
2024-02-10T17:08:46.598Z,7.92
2024-02-10T17:11:18.886Z,7.90
2024-02-10T17:13:53.443Z,7.89
2024-02-10T17:16:25.957Z,7.87
2024-02-10T17:19:01.067Z,7.84
2024-02-10T17:21:34.825Z,7.83
2024-02-10T17:24:08.374Z,7.81
2024-02-10T17:26:40.510Z,7.75
2024-02-10T17:29:12.950Z,7.70
2024-02-10T17:31:50.975Z,7.70
2024-02-10T17:34:23.716Z,7.71
2024-02-10T17:36:55.788Z,7.71
2024-02-10T17:39:27.686Z,7.73
2024-02-10T17:41:59.854Z,7.75
2024-02-10T17:44:33.375Z,7.75
2024-02-10T17:47:05.678Z,7.73
2024-02-10T17:49:45.533Z,7.71
2024-02-10T17:52:19.137Z,7.71
2024-02-10T17:54:52.827Z,7.72
2024-02-10T17:57:25.016Z,7.69
2024-02-10T18:00:00.078Z,7.66
2024-02-10T18:02:32.544Z,7.60
2024-02-10T18:05:05.742Z,7.57
2024-02-10T18:07:37.853Z,7.50
2024-02-10T18:10:11.252Z,7.48
2024-02-10T18:12:43.269Z,7.42
2024-02-10T18:15:15.743Z,7.39
2024-02-10T18:17:49.512Z,7.36
2024-02-10T18:20:21.920Z,7.31
2024-02-10T18:22:56.707Z,7.29
2024-02-10T18:25:28.811Z,7.26
2024-02-10T18:28:03.342Z,7.22
2024-02-10T18:30:35.329Z,7.19
2024-02-10T18:33:07.792Z,7.16
2024-02-10T18:35:40.366Z,7.13
2024-02-10T18:38:13.114Z,7.11
2024-02-10T18:40:45.957Z,7.09
2024-02-10T18:43:18.041Z,7.07
2024-02-10T18:45:50.049Z,7.05
2024-02-10T18:48:22.266Z,7.03
2024-02-10T18:50:54.225Z,7.04
2024-02-10T18:53:26.317Z,7.03
2024-02-10T18:56:00.591Z,7.03
2024-02-10T18:58:32.809Z,7.05
2024-02-10T19:01:05.960Z,7.06
2024-02-10T19:03:37.999Z,7.07
2024-02-10T19:06:11.483Z,7.08
2024-02-10T19:08:43.498Z,7.10
2024-02-10T19:11:15.547Z,7.11
2024-02-10T19:13:47.813Z,7.15
2024-02-10T19:16:19.896Z,7.16
2024-02-10T19:18:52.795Z,7.18
2024-02-10T19:21:25.185Z,7.20
2024-02-10T19:23:59.223Z,7.20
2024-02-10T19:26:31.539Z,7.19
2024-02-10T19:29:04.114Z,7.20
2024-02-10T19:31:41.364Z,7.22
2024-02-10T19:34:15.826Z,7.25
2024-02-10T19:36:47.777Z,7.24
2024-02-10T19:39:20.632Z,7.23
2024-02-10T19:41:56.000Z,7.21
2024-02-10T19:44:29.230Z,7.21
2024-02-10T19:47:01.210Z,7.18
2024-02-10T19:49:34.533Z,7.14
2024-02-10T19:52:07.438Z,7.11
2024-02-10T19:54:40.554Z,7.09
2024-02-10T19:57:12.993Z,7.06
2024-02-10T19:59:51.760Z,7.04
2024-02-10T20:02:24.083Z,7.00
2024-02-10T20:04:56.102Z,6.98
2024-02-10T20:07:32.392Z,6.96
2024-02-10T20:10:04.772Z,6.90
2024-02-10T20:12:39.629Z,6.84
2024-02-10T20:15:14.424Z,6.79
2024-02-10T20:17:52.680Z,6.71
2024-02-10T20:20:39.186Z,6.67
2024-02-10T20:23:15.515Z,6.63
2024-02-10T20:25:47.701Z,6.58
2024-02-10T20:28:19.720Z,6.54
2024-02-10T20:30:52.080Z,6.51
2024-02-10T20:33:24.207Z,6.49
2024-02-10T20:35:57.083Z,6.46
2024-02-10T20:38:29.114Z,6.44
2024-02-10T20:41:01.189Z,6.42
2024-02-10T20:43:33.374Z,6.38
2024-02-10T20:46:29.228Z,6.36
2024-02-10T20:49:13.435Z,6.33
2024-02-10T20:51:48.133Z,6.31
2024-02-10T20:54:21.818Z,6.29
2024-02-10T20:56:54.414Z,6.28
2024-02-10T20:59:26.308Z,6.25
2024-02-10T21:01:58.364Z,6.23
2024-02-10T21:04:31.123Z,6.22
2024-02-10T21:07:03.255Z,6.20
2024-02-10T21:09:36.262Z,6.19
2024-02-10T21:12:11.086Z,6.18
2024-02-10T21:14:45.526Z,6.18
2024-02-10T21:17:17.850Z,6.18
2024-02-10T21:19:50.649Z,6.18
2024-02-10T21:22:22.790Z,6.18
2024-02-10T21:24:56.202Z,6.18
2024-02-10T21:27:30.993Z,6.18
2024-02-10T21:30:04.033Z,6.17
2024-02-10T21:32:36.051Z,6.18
2024-02-10T21:35:13.277Z,6.17
2024-02-10T21:37:46.659Z,6.19
2024-02-10T21:40:21.643Z,6.19
2024-02-10T21:43:03.494Z,6.19
2024-02-10T21:45:35.510Z,6.19
2024-02-10T21:48:09.858Z,6.19
2024-02-10T21:50:49.880Z,6.19
2024-02-10T21:53:27.766Z,6.18
2024-02-10T21:55:59.797Z,6.16
2024-02-10T21:58:31.821Z,6.15
2024-02-10T22:01:09.110Z,6.15
2024-02-10T22:03:41.153Z,6.14
2024-02-10T22:06:13.810Z,6.13
2024-02-10T22:08:46.035Z,6.14
2024-02-10T22:11:18.760Z,6.13
2024-02-10T22:13:50.886Z,6.10
2024-02-10T22:16:22.968Z,6.08
2024-02-10T22:18:55.107Z,6.05
2024-02-10T22:21:28.285Z,6.04
2024-02-10T22:24:00.909Z,6.04
2024-02-10T22:26:33.865Z,6.02
2024-02-10T22:29:05.787Z,6.00
2024-02-10T22:31:39.886Z,5.98
2024-02-10T22:34:12.375Z,5.96
2024-02-10T22:36:47.433Z,5.94
2024-02-10T22:39:26.367Z,5.93
2024-02-10T22:41:58.467Z,5.91
2024-02-10T22:44:30.540Z,5.87
2024-02-10T22:47:10.060Z,5.86
2024-02-10T22:49:47.068Z,5.84
2024-02-10T22:52:23.553Z,5.84
2024-02-10T22:54:56.224Z,5.84
2024-02-10T22:57:30.930Z,5.84
2024-02-10T23:00:04.806Z,5.84
2024-02-10T23:02:36.868Z,5.86
2024-02-10T23:05:10.002Z,5.87
2024-02-10T23:07:42.630Z,5.91
2024-02-10T23:10:14.969Z,5.95
2024-02-10T23:12:51.132Z,5.96
2024-02-10T23:15:24.035Z,5.98
2024-02-10T23:17:56.745Z,5.98
2024-02-10T23:20:28.847Z,6.00
2024-02-10T23:23:03.418Z,6.01
2024-02-10T23:25:35.644Z,6.05
2024-02-10T23:28:12.041Z,6.10
2024-02-10T23:30:45.385Z,6.14
2024-02-10T23:33:17.483Z,6.18
2024-02-10T23:35:51.005Z,6.22
2024-02-10T23:38:27.969Z,6.27
2024-02-10T23:41:00.120Z,6.31
2024-02-10T23:43:32.143Z,6.35
2024-02-10T23:46:07.663Z,6.37
2024-02-10T23:48:40.033Z,6.37
2024-02-10T23:51:15.120Z,6.41
2024-02-10T23:53:47.511Z,6.42
2024-02-10T23:56:20.298Z,6.43
2024-02-10T23:58:53.640Z,6.45
